Terminal Aerodrome Forecast
Issued by NWS

Home | Current Version | Previous Version | Text Only | Print | Product List | Glossary On
Versions: 1 2 3 4 5 6 7 8 9 10 11 12 13 14 15 16 17 18 19 20
149
FTUS42 KGSP 041128
TAFGMU
TAF
KGMU 041128Z 0412/0512 31004KT P6SM FEW045
     FM041700 27008KT P6SM SCT050
     FM050100 25008KT P6SM BKN050
     FM050500 28006KT P6SM SCT200
     FM051000 31007KT P6SM FEW035=

USA.gov is the U.S. government's official web portal to all federal, state and local government web resources and services.